sensor_id;sensor_type;location;lat;lon;timestamp;pressure;altitude;pressure_sealevel;temperature;humidity
27294;BME280;14785;52.556;13.430;2023-05-27T00:00:52;101999.38;;;16.08;100.00
27294;BME280;14785;52.556;13.430;2023-05-27T00:03:17;102007.59;;;16.07;100.00
27294;BME280;14785;52.556;13.430;2023-05-27T00:05:43;102005.94;;;16.06;100.00
27294;BME280;14785;52.556;13.430;2023-05-27T00:08:08;102011.94;;;16.00;100.00
27294;BME280;14785;52.556;13.430;2023-05-27T00:10:33;102001.31;;;16.24;100.00
27294;BME280;14785;52.556;13.430;2023-05-27T00:12:59;101999.63;;;16.23;100.00
27294;BME280;14785;52.556;13.430;2023-05-27T00:15:24;102007.13;;;15.86;100.00
27294;BME280;14785;52.556;13.430;2023-05-27T00:17:51;102009.13;;;15.84;100.00
27294;BME280;14785;52.556;13.430;2023-05-27T00:20:17;102006.09;;;15.79;100.00
27294;BME280;14785;52.556;13.430;2023-05-27T00:22:44;102005.31;;;15.86;100.00
27294;BME280;14785;52.556;13.430;2023-05-27T00:25:10;102001.97;;;15.67;100.00
27294;BME280;14785;52.556;13.430;2023-05-27T00:27:36;102009.63;;;15.62;100.00
27294;BME280;14785;52.556;13.430;2023-05-27T00:30:01;102013.56;;;15.14;100.00
27294;BME280;14785;52.556;13.430;2023-05-27T00:32:27;102017.16;;;15.05;100.00
27294;BME280;14785;52.556;13.430;2023-05-27T00:34:53;102010.59;;;15.17;100.00
27294;BME280;14785;52.556;13.430;2023-05-27T00:37:18;102001.78;;;15.25;100.00
27294;BME280;14785;52.556;13.430;2023-05-27T00:39:44;102003.53;;;15.52;100.00
27294;BME280;14785;52.556;13.430;2023-05-27T00:42:10;102002.84;;;15.50;100.00
27294;BME280;14785;52.556;13.430;2023-05-27T00:44:36;102002.28;;;15.64;100.00
27294;BME280;14785;52.556;13.430;2023-05-27T00:47:02;101999.84;;;15.53;100.00
27294;BME280;14785;52.556;13.430;2023-05-27T00:49:27;102004.34;;;15.34;100.00
27294;BME280;14785;52.556;13.430;2023-05-27T00:51:53;102007.81;;;15.45;100.00
27294;BME280;14785;52.556;13.430;2023-05-27T00:54:18;102010.63;;;15.25;100.00
27294;BME280;14785;52.556;13.430;2023-05-27T00:56:44;102011.25;;;15.19;100.00
27294;BME280;14785;52.556;13.430;2023-05-27T00:59:09;102004.47;;;15.43;100.00
27294;BME280;14785;52.556;13.430;2023-05-27T01:01:35;102008.81;;;15.44;100.00
27294;BME280;14785;52.556;13.430;2023-05-27T01:04:02;102003.53;;;15.52;100.00
27294;BME280;14785;52.556;13.430;2023-05-27T01:09:55;101997.63;;;15.48;100.00
27294;BME280;14785;52.556;13.430;2023-05-27T01:12:35;102001.91;;;15.59;100.00
27294;BME280;14785;52.556;13.430;2023-05-27T01:15:04;102005.13;;;15.45;100.00
27294;BME280;14785;52.556;13.430;2023-05-27T01:17:31;101986.16;;;15.38;100.00
27294;BME280;14785;52.556;13.430;2023-05-27T01:20:00;101995.22;;;15.37;100.00
27294;BME280;14785;52.556;13.430;2023-05-27T01:22:29;101992.88;;;15.24;100.00
27294;BME280;14785;52.556;13.430;2023-05-27T01:24:54;101999.69;;;15.01;100.00
27294;BME280;14785;52.556;13.430;2023-05-27T01:27:21;102001.75;;;15.07;100.00
27294;BME280;14785;52.556;13.430;2023-05-27T01:29:51;101993.25;;;14.94;100.00
27294;BME280;14785;52.556;13.430;2023-05-27T01:32:21;101998.00;;;15.00;100.00
27294;BME280;14785;52.556;13.430;2023-05-27T01:35:29;101994.56;;;15.08;100.00
27294;BME280;14785;52.556;13.430;2023-05-27T01:37:56;101996.94;;;14.93;100.00
27294;BME280;14785;52.556;13.430;2023-05-27T01:40:24;101995.22;;;14.92;100.00
27294;BME280;14785;52.556;13.430;2023-05-27T01:42:50;101990.47;;;14.86;100.00
27294;BME280;14785;52.556;13.430;2023-05-27T01:45:16;101988.81;;;14.85;100.00
27294;BME280;14785;52.556;13.430;2023-05-27T01:47:44;101990.19;;;14.89;100.00
27294;BME280;14785;52.556;13.430;2023-05-27T01:50:10;101984.59;;;15.00;100.00
27294;BME280;14785;52.556;13.430;2023-05-27T01:52:36;101980.31;;;14.90;100.00
27294;BME280;14785;52.556;13.430;2023-05-27T01:55:01;101989.75;;;15.11;100.00
27294;BME280;14785;52.556;13.430;2023-05-27T01:57:29;101978.41;;;15.17;100.00
27294;BME280;14785;52.556;13.430;2023-05-27T01:59:54;101977.19;;;14.94;100.00
27294;BME280;14785;52.556;13.430;2023-05-27T02:02:19;101987.03;;;14.76;100.00
27294;BME280;14785;52.556;13.430;2023-05-27T02:04:45;101980.81;;;14.58;100.00
27294;BME280;14785;52.556;13.430;2023-05-27T02:07:11;101981.38;;;14.35;100.00
27294;BME280;14785;52.556;13.430;2023-05-27T02:09:37;101972.97;;;14.47;100.00
27294;BME280;14785;52.556;13.430;2023-05-27T02:12:02;101979.06;;;14.40;100.00
27294;BME280;14785;52.556;13.430;2023-05-27T02:14:28;101974.97;;;14.45;100.00
27294;BME280;14785;52.556;13.430;2023-05-27T02:16:53;101963.16;;;14.38;100.00
27294;BME280;14785;52.556;13.430;2023-05-27T02:19:20;101976.63;;;14.19;100.00
27294;BME280;14785;52.556;13.430;2023-05-27T02:21:46;101979.34;;;14.10;100.00
27294;BME280;14785;52.556;13.430;2023-05-27T02:24:11;101983.19;;;14.34;100.00
27294;BME280;14785;52.556;13.430;2023-05-27T02:26:36;101978.13;;;14.31;100.00
27294;BME280;14785;52.556;13.430;2023-05-27T02:29:02;101980.41;;;14.53;100.00
27294;BME280;14785;52.556;13.430;2023-05-27T02:31:27;101987.16;;;14.57;100.00
27294;BME280;14785;52.556;13.430;2023-05-27T02:33:53;101978.69;;;14.79;100.00
27294;BME280;14785;52.556;13.430;2023-05-27T02:36:18;101982.38;;;14.78;100.00
27294;BME280;14785;52.556;13.430;2023-05-27T02:38:46;101985.44;;;14.83;100.00
27294;BME280;14785;52.556;13.430;2023-05-27T02:41:11;101979.78;;;14.86;100.00
27294;BME280;14785;52.556;13.430;2023-05-27T02:43:37;101987.97;;;14.85;100.00
27294;BME280;14785;52.556;13.430;2023-05-27T02:46:02;101981.69;;;14.76;100.00
27294;BME280;14785;52.556;13.430;2023-05-27T02:48:28;101981.09;;;14.55;100.00
27294;BME280;14785;52.556;13.430;2023-05-27T02:50:53;101984.50;;;14.57;100.00
27294;BME280;14785;52.556;13.430;2023-05-27T02:53:18;101983.09;;;14.53;100.00
27294;BME280;14785;52.556;13.430;2023-05-27T02:55:47;101989.69;;;14.22;100.00
27294;BME280;14785;52.556;13.430;2023-05-27T02:58:12;101988.25;;;14.37;100.00
27294;BME280;14785;52.556;13.430;2023-05-27T03:00:38;101991.94;;;14.36;100.00
27294;BME280;14785;52.556;13.430;2023-05-27T03:03:03;101994.50;;;14.28;100.00
27294;BME280;14785;52.556;13.430;2023-05-27T03:05:32;101996.50;;;14.26;100.00
27294;BME280;14785;52.556;13.430;2023-05-27T03:07:58;101993.81;;;14.26;100.00
27294;BME280;14785;52.556;13.430;2023-05-27T03:10:24;101997.50;;;14.43;100.00
27294;BME280;14785;52.556;13.430;2023-05-27T03:12:49;101997.00;;;14.39;100.00
27294;BME280;14785;52.556;13.430;2023-05-27T03:15:15;101989.03;;;14.20;100.00
27294;BME280;14785;52.556;13.430;2023-05-27T03:17:40;101985.66;;;14.09;100.00
27294;BME280;14785;52.556;13.430;2023-05-27T03:20:06;101984.94;;;13.70;100.00
27294;BME280;14785;52.556;13.430;2023-05-27T03:22:36;101989.19;;;14.09;100.00
27294;BME280;14785;52.556;13.430;2023-05-27T03:25:02;101982.97;;;14.18;100.00
27294;BME280;14785;52.556;13.430;2023-05-27T03:27:28;101978.44;;;13.82;100.00
27294;BME280;14785;52.556;13.430;2023-05-27T03:29:53;101989.31;;;13.71;100.00
27294;BME280;14785;52.556;13.430;2023-05-27T03:32:19;101988.34;;;13.53;100.00
27294;BME280;14785;52.556;13.430;2023-05-27T03:34:44;101992.69;;;13.83;100.00
27294;BME280;14785;52.556;13.430;2023-05-27T03:37:10;101985.59;;;13.91;100.00
27294;BME280;14785;52.556;13.430;2023-05-27T03:39:35;101991.09;;;13.80;100.00
27294;BME280;14785;52.556;13.430;2023-05-27T03:42:00;101979.53;;;13.89;100.00
27294;BME280;14785;52.556;13.430;2023-05-27T03:44:26;101983.69;;;14.11;100.00
27294;BME280;14785;52.556;13.430;2023-05-27T03:46:51;101992.03;;;13.98;100.00
27294;BME280;14785;52.556;13.430;2023-05-27T03:49:17;101982.22;;;13.89;100.00
27294;BME280;14785;52.556;13.430;2023-05-27T03:51:42;101992.25;;;13.78;100.00
27294;BME280;14785;52.556;13.430;2023-05-27T03:54:08;101986.81;;;14.06;100.00
27294;BME280;14785;52.556;13.430;2023-05-27T03:56:33;101991.47;;;14.04;100.00
27294;BME280;14785;52.556;13.430;2023-05-27T03:58:58;101997.34;;;14.17;100.00
27294;BME280;14785;52.556;13.430;2023-05-27T04:01:24;101985.53;;;14.10;100.00
27294;BME280;14785;52.556;13.430;2023-05-27T04:03:50;101991.75;;;14.01;100.00
27294;BME280;14785;52.556;13.430;2023-05-27T04:06:15;101993.53;;;14.10;100.00
27294;BME280;14785;52.556;13.430;2023-05-27T04:08:41;101991.75;;;14.01;100.00
27294;BME280;14785;52.556;13.430;2023-05-27T04:11:11;101995.78;;;13.78;100.00
27294;BME280;14785;52.556;13.430;2023-05-27T04:13:38;101995.44;;;13.91;100.00
27294;BME280;14785;52.556;13.430;2023-05-27T04:16:03;101994.97;;;13.59;100.00
27294;BME280;14785;52.556;13.430;2023-05-27T04:18:28;102006.19;;;13.72;100.00
27294;BME280;14785;52.556;13.430;2023-05-27T04:20:54;102009.16;;;13.78;100.00
27294;BME280;14785;52.556;13.430;2023-05-27T04:23:20;102002.44;;;14.01;100.00
27294;BME280;14785;52.556;13.430;2023-05-27T04:25:45;102007.00;;;13.91;100.00
27294;BME280;14785;52.556;13.430;2023-05-27T04:28:11;102001.00;;;14.16;100.00
27294;BME280;14785;52.556;13.430;2023-05-27T04:30:36;102009.06;;;14.43;100.00
27294;BME280;14785;52.556;13.430;2023-05-27T04:33:02;102013.63;;;14.33;100.00
27294;BME280;14785;52.556;13.430;2023-05-27T04:35:27;102007.13;;;14.36;100.00
27294;BME280;14785;52.556;13.430;2023-05-27T04:37:56;102018.69;;;14.36;100.00
27294;BME280;14785;52.556;13.430;2023-05-27T04:40:24;102008.19;;;14.52;100.00
27294;BME280;14785;52.556;13.430;2023-05-27T04:42:50;102010.56;;;14.28;100.00
27294;BME280;14785;52.556;13.430;2023-05-27T04:45:15;102012.78;;;14.33;100.00
27294;BME280;14785;52.556;13.430;2023-05-27T04:47:41;102011.88;;;14.51;100.00
27294;BME280;14785;52.556;13.430;2023-05-27T04:50:07;102015.63;;;14.31;100.00
27294;BME280;14785;52.556;13.430;2023-05-27T04:52:33;102014.22;;;14.27;100.00
27294;BME280;14785;52.556;13.430;2023-05-27T04:55:05;102013.38;;;14.27;100.00
27294;BME280;14785;52.556;13.430;2023-05-27T04:57:31;102006.19;;;14.27;100.00
27294;BME280;14785;52.556;13.430;2023-05-27T04:59:58;102011.09;;;14.22;100.00
27294;BME280;14785;52.556;13.430;2023-05-27T05:02:43;101999.03;;;14.18;100.00
27294;BME280;14785;52.556;13.430;2023-05-27T05:05:11;101999.75;;;14.47;100.00
27294;BME280;14785;52.556;13.430;2023-05-27T05:07:38;102002.03;;;14.42;100.00
27294;BME280;14785;52.556;13.430;2023-05-27T05:10:10;102001.81;;;14.80;100.00
27294;BME280;14785;52.556;13.430;2023-05-27T05:12:37;101999.97;;;14.63;100.00
27294;BME280;14785;52.556;13.430;2023-05-27T05:15:05;102001.44;;;14.75;100.00
27294;BME280;14785;52.556;13.430;2023-05-27T05:17:31;102000.00;;;14.98;100.00
27294;BME280;14785;52.556;13.430;2023-05-27T05:19:56;101997.53;;;14.87;100.00
27294;BME280;14785;52.556;13.430;2023-05-27T05:22:22;101996.34;;;14.99;100.00
27294;BME280;14785;52.556;13.430;2023-05-27T05:24:51;101997.69;;;15.03;100.00
27294;BME280;14785;52.556;13.430;2023-05-27T05:27:17;102004.59;;;15.23;100.00
27294;BME280;14785;52.556;13.430;2023-05-27T05:29:42;102010.13;;;15.40;100.00
27294;BME280;14785;52.556;13.430;2023-05-27T05:32:09;102003.84;;;15.49;100.00
27294;BME280;14785;52.556;13.430;2023-05-27T05:34:36;102009.44;;;15.81;100.00
27294;BME280;14785;52.556;13.430;2023-05-27T05:37:02;102006.47;;;15.66;100.00
27294;BME280;14785;52.556;13.430;2023-05-27T05:39:27;102014.81;;;15.38;100.00
27294;BME280;14785;52.556;13.430;2023-05-27T05:41:53;102012.69;;;15.31;100.00
27294;BME280;14785;52.556;13.430;2023-05-27T05:44:18;102008.59;;;15.55;100.00
27294;BME280;14785;52.556;13.430;2023-05-27T05:46:44;102019.63;;;15.52;100.00
27294;BME280;14785;52.556;13.430;2023-05-27T05:49:09;102011.00;;;15.66;100.00
27294;BME280;14785;52.556;13.430;2023-05-27T05:51:34;102015.31;;;15.59;100.00
27294;BME280;14785;52.556;13.430;2023-05-27T05:54:00;102013.94;;;15.55;100.00
27294;BME280;14785;52.556;13.430;2023-05-27T05:56:26;102013.75;;;15.74;100.00
27294;BME280;14785;52.556;13.430;2023-05-27T05:58:52;102009.75;;;16.03;100.00
27294;BME280;14785;52.556;13.430;2023-05-27T06:01:17;102013.97;;;16.06;100.00
27294;BME280;14785;52.556;13.430;2023-05-27T06:03:43;102014.53;;;15.92;100.00
27294;BME280;14785;52.556;13.430;2023-05-27T06:06:08;102016.69;;;16.14;100.00
27294;BME280;14785;52.556;13.430;2023-05-27T06:08:34;102013.34;;;16.12;100.00
27294;BME280;14785;52.556;13.430;2023-05-27T06:11:00;102014.78;;;16.06;100.00
27294;BME280;14785;52.556;13.430;2023-05-27T06:13:25;102021.03;;;16.07;100.00
27294;BME280;14785;52.556;13.430;2023-05-27T06:15:51;102015.63;;;16.32;100.00
27294;BME280;14785;52.556;13.430;2023-05-27T06:18:16;102009.69;;;16.54;100.00
27294;BME280;14785;52.556;13.430;2023-05-27T06:20:41;102013.13;;;16.72;100.00
27294;BME280;14785;52.556;13.430;2023-05-27T06:23:07;102014.97;;;16.72;100.00
27294;BME280;14785;52.556;13.430;2023-05-27T06:25:32;102018.03;;;16.85;100.00
27294;BME280;14785;52.556;13.430;2023-05-27T06:27:58;102023.91;;;16.88;100.00
27294;BME280;14785;52.556;13.430;2023-05-27T06:30:24;102024.47;;;17.08;100.00
27294;BME280;14785;52.556;13.430;2023-05-27T06:32:51;102027.84;;;17.26;100.00
27294;BME280;14785;52.556;13.430;2023-05-27T06:35:16;102023.16;;;17.36;100.00
27294;BME280;14785;52.556;13.430;2023-05-27T06:37:41;102030.28;;;17.45;100.00
27294;BME280;14785;52.556;13.430;2023-05-27T06:40:07;102031.88;;;17.06;100.00
27294;BME280;14785;52.556;13.430;2023-05-27T06:42:33;102030.88;;;17.31;100.00
27294;BME280;14785;52.556;13.430;2023-05-27T06:44:58;102035.59;;;17.29;100.00
27294;BME280;14785;52.556;13.430;2023-05-27T06:47:23;102028.56;;;17.36;100.00
27294;BME280;14785;52.556;13.430;2023-05-27T06:49:49;102036.94;;;17.33;100.00
27294;BME280;14785;52.556;13.430;2023-05-27T06:52:14;102032.97;;;17.45;100.00
27294;BME280;14785;52.556;13.430;2023-05-27T06:54:40;102030.59;;;17.50;100.00
27294;BME280;14785;52.556;13.430;2023-05-27T06:57:05;102037.94;;;17.32;100.00
27294;BME280;14785;52.556;13.430;2023-05-27T06:59:31;102038.50;;;17.60;100.00
27294;BME280;14785;52.556;13.430;2023-05-27T07:01:56;102035.28;;;17.48;100.00
27294;BME280;14785;52.556;13.430;2023-05-27T07:04:22;102029.84;;;17.08;100.00
27294;BME280;14785;52.556;13.430;2023-05-27T07:06:47;102032.53;;;17.00;100.00
27294;BME280;14785;52.556;13.430;2023-05-27T07:09:12;102035.28;;;16.41;100.00
27294;BME280;14785;52.556;13.430;2023-05-27T07:11:39;102026.06;;;16.77;100.00
27294;BME280;14785;52.556;13.430;2023-05-27T07:14:05;102022.00;;;16.65;100.00
27294;BME280;14785;52.556;13.430;2023-05-27T07:16:30;102034.16;;;16.93;100.00
27294;BME280;14785;52.556;13.430;2023-05-27T07:18:56;102024.31;;;17.34;100.00
27294;BME280;14785;52.556;13.430;2023-05-27T07:21:21;102030.88;;;17.31;100.00
27294;BME280;14785;52.556;13.430;2023-05-27T07:23:47;102020.84;;;17.49;100.00
27294;BME280;14785;52.556;13.430;2023-05-27T07:26:12;102021.81;;;17.32;100.00
27294;BME280;14785;52.556;13.430;2023-05-27T07:28:38;102019.66;;;17.52;99.03
27294;BME280;14785;52.556;13.430;2023-05-27T07:31:04;102024.38;;;17.66;98.82
27294;BME280;14785;52.556;13.430;2023-05-27T07:33:29;102018.28;;;17.24;97.42
27294;BME280;14785;52.556;13.430;2023-05-27T07:35:55;102020.50;;;17.60;100.00
27294;BME280;14785;52.556;13.430;2023-05-27T07:38:20;102019.81;;;17.74;100.00
27294;BME280;14785;52.556;13.430;2023-05-27T07:40:46;102018.13;;;17.97;100.00
27294;BME280;14785;52.556;13.430;2023-05-27T07:43:11;102015.44;;;17.33;96.99
27294;BME280;14785;52.556;13.430;2023-05-27T07:45:37;102015.44;;;17.57;96.45
27294;BME280;14785;52.556;13.430;2023-05-27T07:48:02;102014.75;;;17.15;97.21
27294;BME280;14785;52.556;13.430;2023-05-27T07:50:28;102006.53;;;17.65;98.40
27294;BME280;14785;52.556;13.430;2023-05-27T07:52:53;102006.66;;;17.95;97.16
27294;BME280;14785;52.556;13.430;2023-05-27T07:55:19;102010.03;;;17.89;87.73
27294;BME280;14785;52.556;13.430;2023-05-27T07:57:44;102000.41;;;18.03;88.02
27294;BME280;14785;52.556;13.430;2023-05-27T08:00:10;101998.53;;;18.19;98.00
27294;BME280;14785;52.556;13.430;2023-05-27T08:02:35;101993.47;;;18.24;75.84
27294;BME280;14785;52.556;13.430;2023-05-27T08:05:02;101987.91;;;18.18;80.11
27294;BME280;14785;52.556;13.430;2023-05-27T08:07:29;101985.34;;;18.40;83.99
27294;BME280;14785;52.556;13.430;2023-05-27T08:09:55;101984.84;;;17.58;80.40
27294;BME280;14785;52.556;13.430;2023-05-27T08:12:20;101978.28;;;17.61;85.81
27294;BME280;14785;52.556;13.430;2023-05-27T08:14:46;101975.22;;;17.88;92.54
27294;BME280;14785;52.556;13.430;2023-05-27T08:17:11;101974.69;;;18.00;77.10
27294;BME280;14785;52.556;13.430;2023-05-27T08:19:37;101980.47;;;18.28;82.34
27294;BME280;14785;52.556;13.430;2023-05-27T08:22:02;101972.72;;;18.41;86.26
27294;BME280;14785;52.556;13.430;2023-05-27T08:24:29;101975.91;;;18.36;81.29
27294;BME280;14785;52.556;13.430;2023-05-27T08:26:57;101972.13;;;18.53;78.95
27294;BME280;14785;52.556;13.430;2023-05-27T08:29:22;101970.81;;;18.49;72.71
27294;BME280;14785;52.556;13.430;2023-05-27T08:31:51;101971.34;;;18.75;78.78
27294;BME280;14785;52.556;13.430;2023-05-27T08:34:18;101972.53;;;18.34;71.65
27294;BME280;14785;52.556;13.430;2023-05-27T08:36:44;101965.84;;;18.22;68.13
27294;BME280;14785;52.556;13.430;2023-05-27T08:39:09;101962.59;;;18.73;79.99
27294;BME280;14785;52.556;13.430;2023-05-27T08:41:36;101957.72;;;18.38;62.60
27294;BME280;14785;52.556;13.430;2023-05-27T08:44:02;101959.59;;;18.68;75.44
27294;BME280;14785;52.556;13.430;2023-05-27T08:46:27;101962.00;;;18.86;72.32
27294;BME280;14785;52.556;13.430;2023-05-27T08:48:53;101954.19;;;18.68;72.51
27294;BME280;14785;52.556;13.430;2023-05-27T08:51:21;101959.38;;;19.01;65.19
27294;BME280;14785;52.556;13.430;2023-05-27T08:53:47;101951.56;;;18.83;65.00
27294;BME280;14785;52.556;13.430;2023-05-27T08:56:19;101955.03;;;18.38;56.67
27294;BME280;14785;52.556;13.430;2023-05-27T08:58:45;101948.00;;;17.59;56.36
27294;BME280;14785;52.556;13.430;2023-05-27T09:01:11;101935.75;;;17.64;57.41
27294;BME280;14785;52.556;13.430;2023-05-27T09:03:37;101936.22;;;18.22;59.64
27294;BME280;14785;52.556;13.430;2023-05-27T09:06:03;101931.16;;;18.66;61.17
27294;BME280;14785;52.556;13.430;2023-05-27T09:08:30;101944.88;;;19.02;62.93
27294;BME280;14785;52.556;13.430;2023-05-27T09:10:55;101935.91;;;19.32;55.93
27294;BME280;14785;52.556;13.430;2023-05-27T09:13:31;101940.78;;;19.51;53.44
27294;BME280;14785;52.556;13.430;2023-05-27T09:15:59;101922.91;;;19.79;56.27
27294;BME280;14785;52.556;13.430;2023-05-27T09:18:30;101933.13;;;19.40;58.79
27294;BME280;14785;52.556;13.430;2023-05-27T09:20:56;101940.31;;;19.25;53.73
27294;BME280;14785;52.556;13.430;2023-05-27T09:23:22;101936.53;;;19.85;59.03
27294;BME280;14785;52.556;13.430;2023-05-27T09:25:48;101936.53;;;19.71;52.52
27294;BME280;14785;52.556;13.430;2023-05-27T09:28:24;101930.25;;;19.41;58.94
27294;BME280;14785;52.556;13.430;2023-05-27T09:31:00;101947.63;;;18.93;54.89
27294;BME280;14785;52.556;13.430;2023-05-27T09:33:30;101942.66;;;18.13;58.00
27294;BME280;14785;52.556;13.430;2023-05-27T09:35:56;101943.38;;;18.76;57.64
27294;BME280;14785;52.556;13.430;2023-05-27T09:38:22;101933.50;;;19.14;58.03
27294;BME280;14785;52.556;13.430;2023-05-27T09:40:47;101935.03;;;18.25;55.18
27294;BME280;14785;52.556;13.430;2023-05-27T09:43:14;101928.47;;;18.27;58.79
27294;BME280;14785;52.556;13.430;2023-05-27T09:45:41;101926.53;;;18.74;60.21
27294;BME280;14785;52.556;13.430;2023-05-27T09:48:10;101925.31;;;19.45;58.05
27294;BME280;14785;52.556;13.430;2023-05-27T09:50:37;101928.13;;;19.66;55.88
27294;BME280;14785;52.556;13.430;2023-05-27T09:53:03;101928.56;;;19.55;53.58
27294;BME280;14785;52.556;13.430;2023-05-27T09:55:29;101921.25;;;20.07;54.59
27294;BME280;14785;52.556;13.430;2023-05-27T09:57:55;101928.53;;;20.21;56.54
27294;BME280;14785;52.556;13.430;2023-05-27T10:00:21;101917.69;;;20.50;53.24
27294;BME280;14785;52.556;13.430;2023-05-27T10:02:47;101917.69;;;20.50;54.30
27294;BME280;14785;52.556;13.430;2023-05-27T10:05:15;101908.28;;;20.46;50.03
27294;BME280;14785;52.556;13.430;2023-05-27T10:07:43;101902.19;;;20.79;53.04
27294;BME280;14785;52.556;13.430;2023-05-27T10:10:11;101901.50;;;20.92;51.28
27294;BME280;14785;52.556;13.430;2023-05-27T10:12:38;101900.41;;;21.08;51.46
27294;BME280;14785;52.556;13.430;2023-05-27T10:15:05;101900.38;;;21.29;53.71
27294;BME280;14785;52.556;13.430;2023-05-27T10:18:04;101893.78;;;21.65;52.14
27294;BME280;14785;52.556;13.430;2023-05-27T10:20:42;101899.16;;;21.31;48.44
27294;BME280;14785;52.556;13.430;2023-05-27T10:23:28;101894.31;;;21.54;51.11
27294;BME280;14785;52.556;13.430;2023-05-27T10:30:51;101900.19;;;23.06;44.19
27294;BME280;14785;52.556;13.430;2023-05-27T10:33:17;101887.59;;;23.83;41.84
27294;BME280;14785;52.556;13.430;2023-05-27T10:35:51;101893.50;;;23.54;39.03
27294;BME280;14785;52.556;13.430;2023-05-27T10:38:17;101881.34;;;23.76;44.37
27294;BME280;14785;52.556;13.430;2023-05-27T10:40:46;101881.75;;;23.73;43.79
27294;BME280;14785;52.556;13.430;2023-05-27T10:43:18;101882.53;;;23.99;41.14
27294;BME280;14785;52.556;13.430;2023-05-27T10:45:44;101881.47;;;24.51;43.27
27294;BME280;14785;52.556;13.430;2023-05-27T10:48:18;101881.75;;;25.36;43.77
27294;BME280;14785;52.556;13.430;2023-05-27T10:50:51;101873.63;;;25.90;37.30
27294;BME280;14785;52.556;13.430;2023-05-27T10:53:20;101871.47;;;26.29;34.05
27294;BME280;14785;52.556;13.430;2023-05-27T10:55:49;101880.72;;;26.46;34.95
27294;BME280;14785;52.556;13.430;2023-05-27T10:58:19;101884.34;;;26.40;36.38
27294;BME280;14785;52.556;13.430;2023-05-27T11:00:48;101876.53;;;27.14;33.05
27294;BME280;14785;52.556;13.430;2023-05-27T11:03:21;101878.75;;;26.94;32.22
27294;BME280;14785;52.556;13.430;2023-05-27T11:06:01;101869.69;;;26.82;33.62
27294;BME280;14785;52.556;13.430;2023-05-27T11:08:27;101870.19;;;26.90;31.73
27294;BME280;14785;52.556;13.430;2023-05-27T11:11:06;101860.66;;;27.34;34.17
27294;BME280;14785;52.556;13.430;2023-05-27T11:13:49;101853.50;;;27.79;33.71
27294;BME280;14785;52.556;13.430;2023-05-27T11:16:15;101853.56;;;27.84;32.05
27294;BME280;14785;52.556;13.430;2023-05-27T11:18:41;101854.03;;;28.88;31.90
27294;BME280;14785;52.556;13.430;2023-05-27T11:21:07;101860.13;;;28.06;31.34
27294;BME280;14785;52.556;13.430;2023-05-27T11:23:37;101840.00;;;28.01;31.15
27294;BME280;14785;52.556;13.430;2023-05-27T11:26:10;101842.78;;;27.89;30.88
27294;BME280;14785;52.556;13.430;2023-05-27T11:28:36;101836.94;;;27.97;35.40
27294;BME280;14785;52.556;13.430;2023-05-27T11:31:02;101839.59;;;28.20;32.33
27294;BME280;14785;52.556;13.430;2023-05-27T11:33:34;101832.53;;;27.96;31.00
27294;BME280;14785;52.556;13.430;2023-05-27T11:36:08;101832.00;;;27.59;34.00
27294;BME280;14785;52.556;13.430;2023-05-27T11:41:15;101825.72;;;27.24;35.15
27294;BME280;14785;52.556;13.430;2023-05-27T11:46:17;101825.06;;;29.25;28.63
27294;BME280;14785;52.556;13.430;2023-05-27T11:48:43;101821.25;;;29.26;28.40
27294;BME280;14785;52.556;13.430;2023-05-27T11:51:10;101822.78;;;28.00;29.91
27294;BME280;14785;52.556;13.430;2023-05-27T11:53:44;101816.78;;;27.17;30.45
27294;BME280;14785;52.556;13.430;2023-05-27T11:56:09;101819.88;;;26.57;30.33
27294;BME280;14785;52.556;13.430;2023-05-27T11:58:35;101813.84;;;27.30;31.31
27294;BME280;14785;52.556;13.430;2023-05-27T12:01:03;101808.53;;;27.75;29.81
27294;BME280;14785;52.556;13.430;2023-05-27T12:03:28;101803.44;;;28.18;29.10
27294;BME280;14785;52.556;13.430;2023-05-27T12:05:55;101801.75;;;28.90;26.94
27294;BME280;14785;52.556;13.430;2023-05-27T12:08:20;101803.56;;;28.84;31.95
27294;BME280;14785;52.556;13.430;2023-05-27T12:10:45;101801.78;;;29.83;29.78
27294;BME280;14785;52.556;13.430;2023-05-27T12:13:15;101796.41;;;29.33;31.16
27294;BME280;14785;52.556;13.430;2023-05-27T12:15:40;101800.09;;;29.05;30.63
27294;BME280;14785;52.556;13.430;2023-05-27T12:18:06;101799.22;;;30.46;27.92
27294;BME280;14785;52.556;13.430;2023-05-27T12:20:31;101794.38;;;30.58;25.26
27294;BME280;14785;52.556;13.430;2023-05-27T12:22:56;101786.94;;;30.05;28.40
27294;BME280;14785;52.556;13.430;2023-05-27T12:25:22;101802.44;;;30.69;28.16
27294;BME280;14785;52.556;13.430;2023-05-27T12:27:47;101786.09;;;29.61;27.53
27294;BME280;14785;52.556;13.430;2023-05-27T12:30:13;101783.84;;;29.75;28.84
27294;BME280;14785;52.556;13.430;2023-05-27T12:32:39;101785.13;;;30.69;29.86
27294;BME280;14785;52.556;13.430;2023-05-27T12:35:05;101787.44;;;30.77;25.96
27294;BME280;14785;52.556;13.430;2023-05-27T12:37:31;101779.75;;;30.79;24.80
27294;BME280;14785;52.556;13.430;2023-05-27T12:39:56;101779.63;;;30.69;25.73
27294;BME280;14785;52.556;13.430;2023-05-27T12:42:22;101783.47;;;30.68;24.48
27294;BME280;14785;52.556;13.430;2023-05-27T12:44:47;101765.34;;;31.40;25.29